createdAt,value
2016-08-13T00:00:01.210Z,1019.49
2016-08-13T00:01:01.164Z,1019.49
2016-08-13T00:02:01.125Z,1019.52
2016-08-13T00:03:01.073Z,1019.52
2016-08-13T00:04:01.028Z,1019.44
2016-08-13T00:05:00.982Z,1019.46
2016-08-13T00:06:00.943Z,1019.45
2016-08-13T00:07:00.888Z,1019.47
2016-08-13T00:08:00.843Z,1019.49
2016-08-13T00:09:00.810Z,1019.45
2016-08-13T00:10:00.754Z,1019.45
2016-08-13T00:11:00.915Z,1019.45
2016-08-13T00:12:00.665Z,1019.44
2016-08-13T00:13:00.620Z,1019.43
2016-08-13T00:14:00.583Z,1019.41
2016-08-13T00:15:00.534Z,1019.43
2016-08-13T00:16:00.488Z,1019.38
2016-08-13T00:17:00.441Z,1019.39
2016-08-13T00:18:00.396Z,1019.42
2016-08-13T00:19:00.361Z,1019.41
2016-08-13T00:20:00.508Z,1019.41
2016-08-13T00:21:00.463Z,1019.41
2016-08-13T00:22:00.217Z,1019.41
2016-08-13T00:23:00.172Z,1019.39
2016-08-13T00:24:00.128Z,1019.41
2016-08-13T00:25:00.094Z,1019.4
2016-08-13T00:26:00.044Z,1019.4
2016-08-13T00:26:59.990Z,1019.4
2016-08-13T00:27:59.948Z,1019.4
2016-08-13T00:28:59.904Z,1019.38
2016-08-13T00:29:59.858Z,1019.42
2016-08-13T00:30:59.823Z,1019.41
2016-08-13T00:31:59.773Z,1019.39
2016-08-13T00:32:59.716Z,1019.39
2016-08-13T00:33:59.678Z,1019.4
2016-08-13T00:34:59.640Z,1019.38
2016-08-13T00:35:59.584Z,1019.42
2016-08-13T00:36:59.542Z,1019.41
2016-08-13T00:37:59.500Z,1019.39
2016-08-13T00:38:59.453Z,1019.39
2016-08-13T00:39:59.406Z,1019.37
2016-08-13T00:40:59.371Z,1019.41
2016-08-13T00:41:59.314Z,1019.36
2016-08-13T00:42:59.279Z,1019.38
2016-08-13T00:43:59.233Z,1019.37
2016-08-13T00:44:59.184Z,1019.33
2016-08-13T00:45:59.137Z,1019.33
2016-08-13T00:46:59.096Z,1019.28
2016-08-13T00:47:59.046Z,1019.29
2016-08-13T00:48:59.003Z,1019.26
2016-08-13T00:49:58.959Z,1019.26
2016-08-13T00:50:58.910Z,1019.27
2016-08-13T00:51:58.865Z,1019.27
2016-08-13T00:52:58.823Z,1019.25
2016-08-13T00:53:58.783Z,1019.25
2016-08-13T00:54:58.734Z,1019.21
2016-08-13T00:55:58.683Z,1019.26
2016-08-13T00:56:58.642Z,1019.26
2016-08-13T00:57:58.599Z,1019.26
2016-08-13T00:58:58.556Z,1019.28
2016-08-13T00:59:58.503Z,1019.27
2016-08-13T01:00:58.460Z,1019.25
2016-08-13T01:01:58.414Z,1019.3
2016-08-13T01:02:58.378Z,1019.31
2016-08-13T01:03:58.321Z,1019.26
2016-08-13T01:04:58.482Z,1019.27
2016-08-13T01:05:58.242Z,1019.21
2016-08-13T01:06:58.187Z,1019.2
2016-08-13T01:07:58.144Z,1019.21
2016-08-13T01:08:58.098Z,1019.2
2016-08-13T01:09:58.053Z,1019.2
2016-08-13T01:10:58.008Z,1019.15
2016-08-13T01:11:57.965Z,1019.14
2016-08-13T01:12:57.923Z,1019.18
2016-08-13T01:13:57.873Z,1019.19
2016-08-13T01:14:58.029Z,1019.17
2016-08-13T01:15:57.787Z,1019.16
2016-08-13T01:16:57.739Z,1019.15
2016-08-13T01:17:57.690Z,1019.16
2016-08-13T01:18:57.655Z,1019.13
2016-08-13T01:19:57.607Z,1019.14
2016-08-13T01:20:57.560Z,1019.11
2016-08-13T01:21:57.512Z,1019.1
2016-08-13T01:22:57.467Z,1019.08
2016-08-13T01:23:57.425Z,1019.05
2016-08-13T01:24:57.374Z,1019.06
2016-08-13T01:25:57.329Z,1019.06
2016-08-13T01:26:57.288Z,1019.04
2016-08-13T01:27:57.241Z,1019.07
2016-08-13T01:28:57.198Z,1019.09
2016-08-13T01:29:57.153Z,1019.06
2016-08-13T01:30:57.108Z,1019.09
2016-08-13T01:31:57.064Z,1019.02
2016-08-13T01:32:57.026Z,1018.99
2016-08-13T01:33:56.971Z,1018.98
2016-08-13T01:34:56.925Z,1019.02
2016-08-13T01:35:56.876Z,1019.01
2016-08-13T01:36:56.836Z,1018.97
2016-08-13T01:37:56.794Z,1019
2016-08-13T01:38:56.746Z,1018.99
2016-08-13T01:39:56.703Z,1018.95
2016-08-13T01:40:56.655Z,1018.93
2016-08-13T01:41:56.615Z,1018.92
2016-08-13T01:42:56.564Z,1018.92
2016-08-13T01:43:56.513Z,1018.88
2016-08-13T01:44:56.475Z,1018.92
2016-08-13T01:45:56.430Z,1018.89
2016-08-13T01:46:56.383Z,1018.87
2016-08-13T01:47:56.336Z,1018.91
2016-08-13T01:48:56.306Z,1018.9
2016-08-13T01:49:56.649Z,1018.88
2016-08-13T01:50:56.401Z,1018.89
2016-08-13T01:51:56.156Z,1018.92
2016-08-13T01:52:56.107Z,1018.92
2016-08-13T01:53:56.471Z,1018.88
2016-08-13T01:54:56.020Z,1018.88
2016-08-13T01:55:55.975Z,1018.89
2016-08-13T01:56:55.934Z,1018.86
2016-08-13T01:57:55.885Z,1018.86
2016-08-13T01:58:55.845Z,1018.86
2016-08-13T01:59:55.797Z,1018.84
2016-08-13T02:00:55.745Z,1018.88
2016-08-13T02:01:55.701Z,1018.88
2016-08-13T02:02:55.653Z,1018.91
2016-08-13T02:03:55.612Z,1018.89
2016-08-13T02:04:55.566Z,1018.89
2016-08-13T02:05:55.724Z,1018.91
2016-08-13T02:06:55.475Z,1018.93
2016-08-13T02:07:55.433Z,1018.93
2016-08-13T02:08:55.378Z,1018.97
2016-08-13T02:09:55.346Z,1018.97
2016-08-13T02:10:55.295Z,1018.96
2016-08-13T02:11:55.245Z,1018.96
2016-08-13T02:12:55.201Z,1018.93
2016-08-13T02:13:55.156Z,1018.93
2016-08-13T02:14:55.118Z,1018.9
2016-08-13T02:15:55.270Z,1018.93
2016-08-13T02:16:55.024Z,1018.84
2016-08-13T02:17:55.177Z,1018.88
2016-08-13T02:18:55.130Z,1018.87
2016-08-13T02:19:54.885Z,1018.88
2016-08-13T02:20:54.844Z,1018.91
2016-08-13T02:21:54.794Z,1018.9
2016-08-13T02:22:54.748Z,1018.91
2016-08-13T02:23:54.699Z,1018.92
2016-08-13T02:24:54.654Z,1018.96
2016-08-13T02:25:54.612Z,1018.97
2016-08-13T02:26:54.562Z,1018.94
2016-08-13T02:27:54.519Z,1018.95
2016-08-13T02:28:54.685Z,1018.98
2016-08-13T02:29:54.434Z,1018.94
2016-08-13T02:30:54.387Z,1018.94
2016-08-13T02:31:54.342Z,1018.94
2016-08-13T02:32:54.505Z,1018.98
2016-08-13T02:33:54.451Z,1019
2016-08-13T02:34:54.226Z,1018.98
2016-08-13T02:35:54.355Z,1019.02
2016-08-13T02:36:54.111Z,1019.01
2016-08-13T02:37:54.065Z,1019.02
2016-08-13T02:38:54.022Z,1019.03
2016-08-13T02:39:53.975Z,1019.07
2016-08-13T02:40:54.133Z,1019.04
2016-08-13T02:41:53.878Z,1019.07
2016-08-13T02:42:54.044Z,1019.05
2016-08-13T02:43:53.994Z,1019.09
2016-08-13T02:44:53.949Z,1019.08
2016-08-13T02:45:53.704Z,1019.03
2016-08-13T02:46:53.664Z,1019.07
2016-08-13T02:47:53.615Z,1019
2016-08-13T02:48:53.568Z,1019.01
2016-08-13T02:49:53.525Z,1019.01
2016-08-13T02:50:53.474Z,1018.98
2016-08-13T02:51:53.435Z,1018.96
2016-08-13T02:52:53.381Z,1018.99
2016-08-13T02:53:53.568Z,1018.93
2016-08-13T02:54:53.290Z,1018.9
2016-08-13T02:55:53.244Z,1018.84
2016-08-13T02:56:53.204Z,1018.87
2016-08-13T02:57:53.155Z,1018.88
2016-08-13T02:58:53.108Z,1018.88
2016-08-13T02:59:53.064Z,1018.88
2016-08-13T03:00:53.024Z,1018.89
2016-08-13T03:01:52.972Z,1018.88
2016-08-13T03:02:52.929Z,1018.9
2016-08-13T03:03:52.878Z,1018.89
2016-08-13T03:04:52.835Z,1018.88
2016-08-13T03:05:52.791Z,1018.89
2016-08-13T03:06:52.744Z,1018.89
2016-08-13T03:07:52.702Z,1018.88
2016-08-13T03:08:52.655Z,1018.87
2016-08-13T03:09:52.608Z,1018.9
2016-08-13T03:10:52.565Z,1018.91
2016-08-13T03:11:52.515Z,1018.89
2016-08-13T03:12:52.471Z,1018.92
2016-08-13T03:13:52.426Z,1018.89
2016-08-13T03:14:52.379Z,1018.86
2016-08-13T03:15:52.334Z,1018.9
2016-08-13T03:16:52.290Z,1018.89
2016-08-13T03:17:52.244Z,1018.91
2016-08-13T03:18:52.196Z,1018.9
2016-08-13T03:19:52.147Z,1018.91
2016-08-13T03:20:52.105Z,1018.9
2016-08-13T03:21:52.262Z,1018.91
2016-08-13T03:22:52.013Z,1018.91
2016-08-13T03:23:51.973Z,1018.93
2016-08-13T03:24:51.925Z,1018.89
2016-08-13T03:25:52.484Z,1018.9
2016-08-13T03:26:51.833Z,1018.91
2016-08-13T03:27:51.787Z,1018.9
2016-08-13T03:28:51.743Z,1018.92
2016-08-13T03:29:51.899Z,1018.91
2016-08-13T03:30:51.652Z,1018.93
2016-08-13T03:31:51.604Z,1018.88
2016-08-13T03:32:51.762Z,1018.87
2016-08-13T03:33:51.514Z,1018.92
2016-08-13T03:34:51.473Z,1018.94
2016-08-13T03:35:51.423Z,1018.95
2016-08-13T03:36:51.583Z,1018.97
2016-08-13T03:37:51.333Z,1018.97
2016-08-13T03:38:51.284Z,1018.93
2016-08-13T03:39:51.240Z,1018.93
2016-08-13T03:40:51.194Z,1018.89
2016-08-13T03:41:51.146Z,1018.94
2016-08-13T03:42:51.104Z,1018.91
2016-08-13T03:43:51.057Z,1018.88
2016-08-13T03:44:51.016Z,1018.87
2016-08-13T03:45:50.964Z,1018.85
2016-08-13T03:46:51.123Z,1018.85
2016-08-13T03:47:51.074Z,1018.86
2016-08-13T03:48:50.826Z,1018.83
2016-08-13T03:49:50.784Z,1018.85
2016-08-13T03:50:50.736Z,1018.79
2016-08-13T03:51:50.686Z,1018.83
2016-08-13T03:52:50.643Z,1018.8
2016-08-13T03:53:50.798Z,1018.86
2016-08-13T03:54:50.554Z,1018.8
2016-08-13T03:55:50.511Z,1018.81
2016-08-13T03:56:50.502Z,1018.84
2016-08-13T03:57:50.417Z,1018.83
2016-08-13T03:58:50.567Z,1018.83
2016-08-13T03:59:50.319Z,1018.89
2016-08-13T04:00:50.273Z,1018.88
2016-08-13T04:01:50.232Z,1018.88
2016-08-13T04:02:50.184Z,1018.85
2016-08-13T04:03:50.138Z,1018.85
2016-08-13T04:04:50.090Z,1018.82
2016-08-13T04:05:50.052Z,1018.87
2016-08-13T04:06:50.202Z,1018.87
2016-08-13T04:07:49.954Z,1018.89
2016-08-13T04:08:49.909Z,1018.89
2016-08-13T04:09:49.860Z,1018.89
2016-08-13T04:10:50.226Z,1018.9
2016-08-13T04:11:49.773Z,1018.92
2016-08-13T04:12:49.721Z,1018.9
2016-08-13T04:13:49.680Z,1018.9
2016-08-13T04:14:49.629Z,1018.91
2016-08-13T04:15:49.589Z,1018.93
2016-08-13T04:16:49.738Z,1018.93
2016-08-13T04:17:49.489Z,1018.96
2016-08-13T04:18:49.444Z,1018.92
2016-08-13T04:19:49.403Z,1018.97
2016-08-13T04:20:49.359Z,1018.99
2016-08-13T04:21:49.312Z,1018.99
2016-08-13T04:22:49.264Z,1019
2016-08-13T04:23:49.223Z,1018.99
2016-08-13T04:24:49.171Z,1018.97
2016-08-13T04:25:49.122Z,1018.94
2016-08-13T04:26:49.078Z,1018.91
2016-08-13T04:27:49.041Z,1018.94
2016-08-13T04:28:48.993Z,1018.92
2016-08-13T04:29:48.942Z,1018.96
2016-08-13T04:30:48.892Z,1018.98
2016-08-13T04:31:48.846Z,1019.01
2016-08-13T04:32:48.802Z,1019
2016-08-13T04:33:48.755Z,1018.99
2016-08-13T04:34:48.713Z,1018.97
2016-08-13T04:35:48.669Z,1018.97
2016-08-13T04:36:48.823Z,1019.01
2016-08-13T04:37:48.573Z,1019
2016-08-13T04:38:48.523Z,1018.95
2016-08-13T04:39:48.482Z,1018.96
2016-08-13T04:40:48.433Z,1018.97
2016-08-13T04:41:48.392Z,1018.98
2016-08-13T04:42:48.342Z,1018.95
2016-08-13T04:43:48.298Z,1018.96
2016-08-13T04:44:48.253Z,1018.97
2016-08-13T04:45:48.204Z,1018.99
2016-08-13T04:46:48.159Z,1019
2016-08-13T04:47:48.113Z,1018.98
2016-08-13T04:48:48.274Z,1018.99
2016-08-13T04:49:48.022Z,1019.01
2016-08-13T04:50:47.973Z,1019.03
2016-08-13T04:51:47.926Z,1018.99
2016-08-13T04:52:48.083Z,1019.04
2016-08-13T04:53:48.238Z,1018.98
2016-08-13T04:54:47.796Z,1018.94
2016-08-13T04:55:47.751Z,1019
2016-08-13T04:56:47.702Z,1019
2016-08-13T04:57:47.858Z,1018.98
2016-08-13T04:58:47.612Z,1019.02
2016-08-13T04:59:47.563Z,1019.05
2016-08-13T05:00:47.513Z,1018.95
2016-08-13T05:01:47.669Z,1018.99
2016-08-13T05:02:47.423Z,1019
2016-08-13T05:03:47.374Z,1019.01
2016-08-13T05:04:47.536Z,1019.06
2016-08-13T05:05:47.289Z,1019.06
2016-08-13T05:06:47.236Z,1019.07
2016-08-13T05:07:47.195Z,1019.08
2016-08-13T05:08:47.153Z,1019.1
2016-08-13T05:09:47.103Z,1019.09
2016-08-13T05:10:47.054Z,1019.11
2016-08-13T05:11:47.006Z,1019.13
2016-08-13T05:12:46.957Z,1019.12
2016-08-13T05:13:46.922Z,1019.11
2016-08-13T05:14:46.871Z,1019.13
2016-08-13T05:15:46.823Z,1019.15
2016-08-13T05:16:46.784Z,1019.17
2016-08-13T05:17:46.732Z,1019.16
2016-08-13T05:18:46.682Z,1019.18
2016-08-13T05:19:46.644Z,1019.17
2016-08-13T05:20:46.592Z,1019.18
2016-08-13T05:21:46.754Z,1019.22
2016-08-13T05:22:46.504Z,1019.19
2016-08-13T05:23:46.450Z,1019.23
2016-08-13T05:24:46.434Z,1019.21
2016-08-13T05:25:46.366Z,1019.2
2016-08-13T05:26:46.315Z,1019.18
2016-08-13T05:27:46.274Z,1019.11
2016-08-13T05:28:46.231Z,1019.1
2016-08-13T05:29:46.178Z,1019.08
2016-08-13T05:30:46.134Z,1019.09
2016-08-13T05:31:46.083Z,1019.1
2016-08-13T05:32:46.454Z,1019.07
2016-08-13T05:33:46.001Z,1019.07
2016-08-13T05:34:45.946Z,1019.06
2016-08-13T05:35:45.903Z,1019.08
2016-08-13T05:36:45.855Z,1019.13
2016-08-13T05:37:45.810Z,1019.12
2016-08-13T05:38:45.764Z,1019.14
2016-08-13T05:39:45.724Z,1019.11
2016-08-13T05:40:45.672Z,1019.11
2016-08-13T05:41:45.621Z,1019.13
2016-08-13T05:42:45.584Z,1019.07
2016-08-13T05:43:45.529Z,1019.11
2016-08-13T05:44:45.484Z,1019.14
2016-08-13T05:45:45.443Z,1019.12
2016-08-13T05:46:45.593Z,1019.15
2016-08-13T05:47:45.354Z,1019.17
2016-08-13T05:48:45.304Z,1019.17
2016-08-13T05:49:45.258Z,1019.17
2016-08-13T05:50:45.209Z,1019.11
2016-08-13T05:51:45.163Z,1019.13
2016-08-13T05:52:45.114Z,1019.12
2016-08-13T05:53:45.068Z,1019.12
2016-08-13T05:54:45.024Z,1019.18
2016-08-13T05:55:44.984Z,1019.17
2016-08-13T05:56:44.933Z,1019.18
2016-08-13T05:57:45.094Z,1019.17
2016-08-13T05:58:44.840Z,1019.19
2016-08-13T05:59:44.792Z,1019.17
2016-08-13T06:00:44.752Z,1019.21
2016-08-13T06:01:44.710Z,1019.2
2016-08-13T06:02:44.657Z,1019.2
2016-08-13T06:03:44.621Z,1019.2
2016-08-13T06:04:44.565Z,1019.18
2016-08-13T06:05:44.516Z,1019.14
2016-08-13T06:06:44.473Z,1019.19
2016-08-13T06:07:44.848Z,1019.21
2016-08-13T06:08:44.584Z,1019.19
2016-08-13T06:09:44.343Z,1019.2
2016-08-13T06:10:44.304Z,1019.18
2016-08-13T06:11:44.256Z,1019.19
2016-08-13T06:12:44.212Z,1019.19
2016-08-13T06:13:44.165Z,1019.16
2016-08-13T06:14:44.107Z,1019.19
2016-08-13T06:15:44.071Z,1019.21
2016-08-13T06:16:44.019Z,1019.23
2016-08-13T06:17:43.979Z,1019.28
2016-08-13T06:18:43.932Z,1019.25
2016-08-13T06:19:43.886Z,1019.25
2016-08-13T06:20:44.043Z,1019.28
2016-08-13T06:21:43.820Z,1019.25
2016-08-13T06:22:43.939Z,1019.24
2016-08-13T06:23:43.700Z,1019.26
2016-08-13T06:24:43.667Z,1019.25
2016-08-13T06:25:43.611Z,1019.26
2016-08-13T06:26:43.568Z,1019.25
2016-08-13T06:27:43.522Z,1019.3
2016-08-13T06:28:43.670Z,1019.26
2016-08-13T06:29:43.428Z,1019.27
2016-08-13T06:30:43.384Z,1019.29
2016-08-13T06:31:43.331Z,1019.29
2016-08-13T06:32:43.488Z,1019.28
2016-08-13T06:33:43.275Z,1019.26
2016-08-13T06:34:43.197Z,1019.29
2016-08-13T06:35:43.163Z,1019.28
2016-08-13T06:36:43.102Z,1019.29
2016-08-13T06:37:43.065Z,1019.31
2016-08-13T06:38:43.022Z,1019.26
2016-08-13T06:39:42.975Z,1019.26
2016-08-13T06:40:42.936Z,1019.23
2016-08-13T06:41:42.889Z,1019.28
2016-08-13T06:42:43.029Z,1019.26
2016-08-13T06:43:42.796Z,1019.32
2016-08-13T06:44:42.772Z,1019.29
2016-08-13T06:45:42.719Z,1019.29
2016-08-13T06:46:42.651Z,1019.28
2016-08-13T06:47:42.608Z,1019.29
2016-08-13T06:48:42.560Z,1019.26
2016-08-13T06:49:42.512Z,1019.29
2016-08-13T06:50:42.470Z,1019.3
2016-08-13T06:51:42.422Z,1019.27
2016-08-13T06:52:42.388Z,1019.25
2016-08-13T06:53:42.327Z,1019.26
2016-08-13T06:54:42.286Z,1019.32
2016-08-13T06:55:42.238Z,1019.32
2016-08-13T06:56:42.399Z,1019.35
2016-08-13T06:57:42.153Z,1019.34
2016-08-13T06:58:42.104Z,1019.38
2016-08-13T06:59:42.103Z,1019.39
2016-08-13T07:00:42.021Z,1019.42
2016-08-13T07:01:41.984Z,1019.41
2016-08-13T07:02:41.933Z,1019.45
2016-08-13T07:03:41.881Z,1019.41
2016-08-13T07:04:41.844Z,1019.41
2016-08-13T07:05:41.793Z,1019.43
2016-08-13T07:06:41.746Z,1019.43
2016-08-13T07:07:41.702Z,1019.41
2016-08-13T07:08:41.655Z,1019.44
2016-08-13T07:09:41.614Z,1019.41
2016-08-13T07:10:41.572Z,1019.41
2016-08-13T07:11:41.522Z,1019.41
2016-08-13T07:12:41.484Z,1019.39
2016-08-13T07:13:41.432Z,1019.38
2016-08-13T07:14:41.386Z,1019.34
2016-08-13T07:15:41.343Z,1019.34
2016-08-13T07:16:41.305Z,1019.36
2016-08-13T07:17:41.263Z,1019.38
2016-08-13T07:18:41.211Z,1019.37
2016-08-13T07:19:41.162Z,1019.35
2016-08-13T07:20:41.122Z,1019.37
2016-08-13T07:21:41.072Z,1019.34
2016-08-13T07:22:41.037Z,1019.28
2016-08-13T07:23:41.004Z,1019.29
2016-08-13T07:24:40.955Z,1019.31
2016-08-13T07:25:40.906Z,1019.31
2016-08-13T07:26:40.852Z,1019.35
2016-08-13T07:27:40.808Z,1019.31
2016-08-13T07:28:40.772Z,1019.36
2016-08-13T07:29:40.719Z,1019.34
2016-08-13T07:30:40.671Z,1019.41
2016-08-13T07:31:40.632Z,1019.42
2016-08-13T07:32:40.582Z,1019.4
2016-08-13T07:33:40.542Z,1019.45
2016-08-13T07:34:40.493Z,1019.45
2016-08-13T07:35:40.450Z,1019.45
2016-08-13T07:36:40.408Z,1019.47
2016-08-13T07:37:40.363Z,1019.44
2016-08-13T07:38:40.533Z,1019.4
2016-08-13T07:39:40.272Z,1019.42
2016-08-13T07:40:40.229Z,1019.37
2016-08-13T07:41:40.195Z,1019.3
2016-08-13T07:42:40.147Z,1019.35
2016-08-13T07:43:40.305Z,1019.28
2016-08-13T07:44:40.047Z,1019.34
2016-08-13T07:45:40.002Z,1019.33
2016-08-13T07:46:39.962Z,1019.38
2016-08-13T07:47:39.918Z,1019.33
2016-08-13T07:48:39.870Z,1019.35
2016-08-13T07:49:39.828Z,1019.39
2016-08-13T07:50:39.779Z,1019.34
2016-08-13T07:51:39.938Z,1019.35
2016-08-13T07:52:39.689Z,1019.31
2016-08-13T07:53:39.648Z,1019.36
2016-08-13T07:54:39.599Z,1019.33
2016-08-13T07:55:39.562Z,1019.33
2016-08-13T07:56:39.521Z,1019.31
2016-08-13T07:57:39.480Z,1019.31
2016-08-13T07:58:39.432Z,1019.34
2016-08-13T07:59:39.381Z,1019.39
2016-08-13T08:00:39.342Z,1019.37
2016-08-13T08:01:39.291Z,1019.35
2016-08-13T08:02:39.248Z,1019.34
2016-08-13T08:03:39.215Z,1019.3
2016-08-13T08:04:39.161Z,1019.29
2016-08-13T08:05:39.318Z,1019.31
2016-08-13T08:06:39.070Z,1019.34
2016-08-13T08:07:39.026Z,1019.35
2016-08-13T08:08:38.980Z,1019.28
2016-08-13T08:09:38.933Z,1019.31
2016-08-13T08:10:38.889Z,1019.29
2016-08-13T08:11:38.843Z,1019.26
2016-08-13T08:12:38.812Z,1019.25
2016-08-13T08:13:38.958Z,1019.27
2016-08-13T08:14:38.731Z,1019.25
2016-08-13T08:15:38.668Z,1019.24
2016-08-13T08:16:38.620Z,1019.2
2016-08-13T08:17:38.575Z,1019.18
2016-08-13T08:18:38.533Z,1019.26
2016-08-13T08:19:38.488Z,1019.19
2016-08-13T08:20:38.449Z,1019.21
2016-08-13T08:21:38.401Z,1019.24
2016-08-13T08:22:38.559Z,1019.13
2016-08-13T08:23:38.720Z,1019.13
2016-08-13T08:24:38.270Z,1019.13
2016-08-13T08:25:38.236Z,1019.15
2016-08-13T08:26:38.181Z,1019.15
2016-08-13T08:27:38.139Z,1019.17
2016-08-13T08:28:38.092Z,1019.22
2016-08-13T08:29:38.046Z,1019.27
2016-08-13T08:30:38.004Z,1019.27
2016-08-13T08:31:37.965Z,1019.25
2016-08-13T08:32:37.914Z,1019.23
2016-08-13T08:33:37.881Z,1019.24
2016-08-13T08:34:37.839Z,1019.24
2016-08-13T08:35:37.789Z,1019.28
2016-08-13T08:36:37.755Z,1019.25
2016-08-13T08:37:37.700Z,1019.31
2016-08-13T08:38:37.658Z,1019.28
2016-08-13T08:39:37.609Z,1019.22
2016-08-13T08:40:37.569Z,1019.24
2016-08-13T08:41:37.520Z,1019.22
2016-08-13T08:42:37.481Z,1019.19
2016-08-13T08:43:37.433Z,1019.25
2016-08-13T08:44:37.392Z,1019.26
2016-08-13T08:45:37.365Z,1019.22
2016-08-13T08:46:37.298Z,1019.25
2016-08-13T08:47:37.294Z,1019.26
2016-08-13T08:48:37.442Z,1019.18
2016-08-13T08:49:37.172Z,1019.2
2016-08-13T08:50:37.125Z,1019.14
2016-08-13T08:51:37.486Z,1019.07
2016-08-13T08:52:37.041Z,1019.11
2016-08-13T08:53:36.999Z,1019.13
2016-08-13T08:54:36.950Z,1019.09
2016-08-13T08:55:36.905Z,1019.1
2016-08-13T08:56:36.859Z,1019.17
2016-08-13T08:57:37.020Z,1019.11
2016-08-13T08:58:36.773Z,1019.13
2016-08-13T08:59:36.942Z,1019.11
2016-08-13T09:00:36.702Z,1019.1
2016-08-13T09:01:36.666Z,1019.08
2016-08-13T09:02:36.600Z,1019.07
2016-08-13T09:03:36.559Z,1019.01
2016-08-13T09:04:36.512Z,1019.13
2016-08-13T09:05:36.470Z,1019.1
2016-08-13T09:06:36.430Z,1019.05
2016-08-13T09:07:36.388Z,1019.06
2016-08-13T09:08:36.337Z,1019.04
2016-08-13T09:09:36.303Z,1019.03
2016-08-13T09:10:36.262Z,1019.02
2016-08-13T09:11:36.216Z,1019.13
2016-08-13T09:12:36.165Z,1019.15
2016-08-13T09:13:36.320Z,1019.09
2016-08-13T09:14:36.082Z,1019.15
2016-08-13T09:15:36.043Z,1019.09
2016-08-13T09:16:35.996Z,1019.2
2016-08-13T09:17:35.952Z,1019.19
2016-08-13T09:18:36.115Z,1019.14
2016-08-13T09:19:35.860Z,1019.2
2016-08-13T09:20:35.809Z,1019.25
2016-08-13T09:21:35.775Z,1019.28
2016-08-13T09:22:36.174Z,1019.24
2016-08-13T09:23:35.689Z,1019.26
2016-08-13T09:24:36.049Z,1019.29
2016-08-13T09:25:35.599Z,1019.2
2016-08-13T09:26:35.575Z,1019.23
2016-08-13T09:27:35.517Z,1019.19
2016-08-13T09:28:35.479Z,1019.2
2016-08-13T09:29:35.431Z,1019.16
2016-08-13T09:30:35.377Z,1019.21
2016-08-13T09:31:35.340Z,1019.26
2016-08-13T09:32:35.294Z,1019.22
2016-08-13T09:33:35.259Z,1019.16
2016-08-13T09:34:35.210Z,1019.2
2016-08-13T09:35:35.167Z,1019.15
2016-08-13T09:36:35.130Z,1019.17
2016-08-13T09:37:35.079Z,1019.15
2016-08-13T09:38:35.041Z,1019.13
2016-08-13T09:39:34.998Z,1019.18
2016-08-13T09:40:34.948Z,1019.16
2016-08-13T09:41:34.911Z,1019.13
2016-08-13T09:42:35.070Z,1019.08
2016-08-13T09:43:34.829Z,1019.09
2016-08-13T09:44:34.779Z,1019.07
2016-08-13T09:45:34.736Z,1019.12
2016-08-13T09:46:34.699Z,1019.11
2016-08-13T09:47:34.655Z,1019.04
2016-08-13T09:48:34.616Z,1019
2016-08-13T09:49:34.568Z,1019.05
2016-08-13T09:50:34.525Z,1019.03
2016-08-13T09:51:34.686Z,1019
2016-08-13T09:52:34.438Z,1019.03
2016-08-13T09:53:34.400Z,1019.01
2016-08-13T09:54:34.720Z,1019.06
2016-08-13T09:55:34.638Z,1019.03
2016-08-13T09:56:34.303Z,1019.01
2016-08-13T09:57:34.233Z,1019
2016-08-13T09:58:34.219Z,1019.02
2016-08-13T09:59:34.146Z,1018.98
2016-08-13T10:00:34.099Z,1018.99
2016-08-13T10:01:34.057Z,1018.95
2016-08-13T10:02:34.017Z,1018.93
2016-08-13T10:03:34.181Z,1018.95
2016-08-13T10:04:33.941Z,1018.94
2016-08-13T10:05:33.887Z,1018.93
2016-08-13T10:06:33.840Z,1018.93
2016-08-13T10:07:33.803Z,1018.89
2016-08-13T10:08:33.759Z,1018.92
2016-08-13T10:09:33.718Z,1018.88
2016-08-13T10:10:33.679Z,1018.86
2016-08-13T10:11:33.643Z,1018.87
2016-08-13T10:12:33.592Z,1018.9
2016-08-13T10:13:33.547Z,1018.87
2016-08-13T10:14:33.503Z,1018.84
2016-08-13T10:15:33.677Z,1018.87
2016-08-13T10:16:33.646Z,1018.89
2016-08-13T10:17:33.391Z,1018.89
2016-08-13T10:18:33.331Z,1018.93
2016-08-13T10:19:33.295Z,1018.95
2016-08-13T10:20:33.464Z,1018.95
2016-08-13T10:21:33.214Z,1018.89
2016-08-13T10:22:33.171Z,1018.83
2016-08-13T10:23:33.124Z,1018.85
2016-08-13T10:24:33.082Z,1018.83
2016-08-13T10:25:33.042Z,1018.86
2016-08-13T10:26:32.995Z,1018.88
2016-08-13T10:27:32.951Z,1018.88
2016-08-13T10:28:32.910Z,1018.91
2016-08-13T10:29:32.871Z,1018.88
2016-08-13T10:30:32.825Z,1018.91
2016-08-13T10:31:32.779Z,1018.92
2016-08-13T10:32:32.737Z,1018.94
2016-08-13T10:33:32.910Z,1018.91
2016-08-13T10:34:32.657Z,1018.9
2016-08-13T10:35:32.611Z,1018.88
2016-08-13T10:36:32.570Z,1018.91
2016-08-13T10:37:32.527Z,1018.88
2016-08-13T10:38:32.483Z,1018.94
2016-08-13T10:39:32.443Z,1018.9
2016-08-13T10:40:32.435Z,1018.96
2016-08-13T10:41:32.357Z,1018.96
2016-08-13T10:42:32.393Z,1018.96
2016-08-13T10:43:32.273Z,1018.93
2016-08-13T10:44:32.232Z,1018.99
2016-08-13T10:45:32.192Z,1018.94
2016-08-13T10:46:32.157Z,1018.94
2016-08-13T10:47:32.103Z,1018.94
2016-08-13T10:48:32.062Z,1018.98
2016-08-13T10:49:32.023Z,1018.96
2016-08-13T10:50:31.978Z,1018.94
2016-08-13T10:51:31.939Z,1018.97
2016-08-13T10:52:31.905Z,1019
2016-08-13T10:53:31.856Z,1018.99
2016-08-13T10:54:31.810Z,1018.98
2016-08-13T10:55:31.766Z,1019.01
2016-08-13T10:56:31.723Z,1018.96
2016-08-13T10:57:31.688Z,1019.07
2016-08-13T10:58:31.646Z,1019.06
2016-08-13T10:59:31.598Z,1018.99
2016-08-13T11:00:31.556Z,1019.08
2016-08-13T11:01:31.517Z,1019.02
2016-08-13T11:02:31.482Z,1019.02
2016-08-13T11:03:31.635Z,1019
2016-08-13T11:04:31.387Z,1019.02
2016-08-13T11:05:31.348Z,1019.02
2016-08-13T11:06:31.309Z,1018.98
2016-08-13T11:07:31.271Z,1019.05
2016-08-13T11:08:31.219Z,1019.08
2016-08-13T11:09:31.180Z,1019.07
2016-08-13T11:10:31.138Z,1019.12
2016-08-13T11:11:31.100Z,1019.11
2016-08-13T11:12:31.049Z,1019.06
2016-08-13T11:13:31.008Z,1019.03
2016-08-13T11:14:30.967Z,1019.03
2016-08-13T11:15:30.930Z,1019.02
2016-08-13T11:16:30.886Z,1019.08
2016-08-13T11:17:30.839Z,1019.05
2016-08-13T11:18:30.795Z,1019.06
2016-08-13T11:19:30.748Z,1019.11
2016-08-13T11:20:30.712Z,1019.12
2016-08-13T11:21:30.666Z,1019.17
2016-08-13T11:22:30.635Z,1019.09
2016-08-13T11:23:30.581Z,1019.21
2016-08-13T11:24:30.543Z,1019.11
2016-08-13T11:25:30.506Z,1019.12
2016-08-13T11:26:30.463Z,1019.21
2016-08-13T11:27:30.412Z,1019.23
2016-08-13T11:28:30.376Z,1019.17
2016-08-13T11:29:30.335Z,1019.19
2016-08-13T11:30:30.288Z,1019.2
2016-08-13T11:31:30.246Z,1019.24
2016-08-13T11:32:30.202Z,1019.19
2016-08-13T11:33:30.161Z,1019.28
2016-08-13T11:34:30.120Z,1019.2
2016-08-13T11:35:30.076Z,1019.2
2016-08-13T11:36:30.033Z,1019.22
2016-08-13T11:37:29.987Z,1019.18
2016-08-13T11:38:29.950Z,1019.19
2016-08-13T11:39:29.904Z,1019.21
2016-08-13T11:40:29.871Z,1019.29
2016-08-13T11:41:30.022Z,1019.21
2016-08-13T11:42:29.779Z,1019.25
2016-08-13T11:43:29.742Z,1019.2
2016-08-13T11:44:29.690Z,1019.17
2016-08-13T11:45:29.651Z,1019.18
2016-08-13T11:46:29.611Z,1019.12
2016-08-13T11:47:29.570Z,1019.16
2016-08-13T11:48:29.528Z,1019.23
2016-08-13T11:49:29.482Z,1019.18
2016-08-13T11:50:29.442Z,1019.22
2016-08-13T11:51:29.407Z,1019.2
2016-08-13T11:52:29.353Z,1019.09
2016-08-13T11:53:29.312Z,1019.13
2016-08-13T11:54:29.271Z,1019.02
2016-08-13T11:55:29.234Z,1019.21
2016-08-13T11:56:29.191Z,1019.15
2016-08-13T11:57:29.142Z,1019.14
2016-08-13T11:58:29.106Z,1019.13
2016-08-13T11:59:29.060Z,1019.14
2016-08-13T12:00:29.014Z,1019.13
2016-08-13T12:01:28.984Z,1019.09
2016-08-13T12:02:28.933Z,1019.13
2016-08-13T12:03:29.093Z,1019.1
2016-08-13T12:04:28.846Z,1019.12
2016-08-13T12:05:28.805Z,1019.15
2016-08-13T12:06:28.762Z,1019.11
2016-08-13T12:07:28.720Z,1019.14